Amity, Maine
Current Conditions -  °F | °C
As of 5:53 AM on Wednesday 26 Nov 2014 (Local Time) from KHUL Reporting Station
Broken Clouds Broken Clouds  
Wind Chill: 30°   Ceiling: 4200
Heat Index: 36°   Visibility: 10mi
Dew Point: 21°   Wind: 8mph
Humidity: 55%   Direction: 270°W
Pressure: 30.13"   Gusts: NA
Location:  45.8952°N, 67.8479°W
Report Text: KHUL 261053Z AUTO 27007KT 10SM BKN042 02/M06 A3013 RMK AO2 SLP209 T00221061
Loading
Personal Weather Stations






























Interactive Weather Map New forecast layout! Learn more

10-Day Weather Forecast

Advertisements
Track Severe Weather on mobile